Pil'Vo, Russia
Current Conditions -  °F | °C
As of 10:00 AM on Friday 28 Nov 2014 (Local Time) from UHSS Reporting Station
Clear Clear  
Wind Chill: 17°   Ceiling: Unl
Heat Index: 23°   Visibility: 6mi
Dew Point: 18°   Wind: 4mph
Humidity: 80%   Direction: 190°S
Pressure: 30.15"   Gusts: NA
Location:  50.05°N, 142.17°E
Report Text: UHSS 272300Z 19002MPS 9999 NSC M05/M08 Q1021 NOSIG RMKQFE765/1020 01CLRD65
Loading
Personal Weather Stations






























Interactive Weather Map New forecast layout! Learn more

10-Day Weather Forecast

Advertisements
Track Severe Weather on mobile